Wetterdaten: Mittwoch, 02.09.2015
Datum Zeit Auen-Temp. Temp gefhlt Luftfeuchte Luftdruck Regen Wind Richtung Richtung Taupunkt Windben
02.09.2015 00:00 13,8 C 13,7 C 89 % 1012,0 hPa 0,0 mm 0,0 km/h (0 Bft) O-NO 67 12,0 C 0,0 km/h (0 Bft)
02.09.2015 00:05 13,7 C 13,6 C 89 % 1012,0 hPa 0,0 mm 0,5 km/h (0 Bft) O-SO 112 11,9 C 3,1 km/h (1 Bft)
02.09.2015 00:10 13,8 C 13,7 C 89 % 1012,0 hPa 0,0 mm 1,0 km/h (0 Bft) O-NO 67 12,0 C 0,0 km/h (0 Bft)
02.09.2015 00:15 13,8 C 13,7 C 89 % 1012,1 hPa 0,0 mm 1,3 km/h (1 Bft) N-NO 22 12,0 C 0,0 km/h (0 Bft)
02.09.2015 00:20 13,8 C 13,7 C 89 % 1012,1 hPa 0,0 mm 1,0 km/h (0 Bft) O-SO 112 12,0 C 6,2 km/h (2 Bft)
02.09.2015 00:25 13,8 C 13,7 C 89 % 1012,1 hPa 0,0 mm 1,3 km/h (1 Bft) W 270 12,0 C 3,9 km/h (1 Bft)
02.09.2015 00:30 13,8 C 13,7 C 89 % 1012,1 hPa 0,0 mm 1,3 km/h (1 Bft) W-NW 292 12,0 C 0,0 km/h (0 Bft)
02.09.2015 00:35 13,8 C 13,7 C 89 % 1012,1 hPa 0,0 mm 0,3 km/h (0 Bft) W-SW 247 12,0 C 0,0 km/h (0 Bft)
02.09.2015 00:40 13,8 C 13,7 C 89 % 1012,1 hPa 0,0 mm 0,3 km/h (0 Bft) S 180 12,0 C 0,0 km/h (0 Bft)
02.09.2015 00:45 13,8 C 13,7 C 89 % 1012,1 hPa 0,0 mm 0,3 km/h (0 Bft) W-SW 247 12,0 C 0,0 km/h (0 Bft)
02.09.2015 00:50 13,8 C 13,7 C 89 % 1012,1 hPa 0,0 mm 0,0 km/h (0 Bft) W-SW 247 12,0 C 0,0 km/h (0 Bft)
02.09.2015 00:55 13,8 C 13,7 C 89 % 1012,6 hPa 0,0 mm 0,0 km/h (0 Bft) W-SW 247 12,0 C 0,0 km/h (0 Bft)
02.09.2015 01:00 13,8 C 13,7 C 89 % 1012,6 hPa 0,0 mm 0,0 km/h (0 Bft) SW 225 12,0 C 0,0 km/h (0 Bft)
02.09.2015 01:05 13,8 C 13,7 C 89 % 1012,6 hPa 0,0 mm 0,0 km/h (0 Bft) S 180 12,0 C 0,0 km/h (0 Bft)
02.09.2015 01:10 13,8 C 13,7 C 89 % 1012,6 hPa 0,0 mm 0,0 km/h (0 Bft) W-SW 247 12,0 C 0,0 km/h (0 Bft)
02.09.2015 01:15 13,7 C 13,6 C 89 % 1012,4 hPa 0,0 mm 0,0 km/h (0 Bft) S 180 11,9 C 0,0 km/h (0 Bft)
02.09.2015 01:20 13,7 C 13,6 C 89 % 1012,4 hPa 0,7 mm 0,0 km/h (0 Bft) W-SW 247 11,9 C 0,0 km/h (0 Bft)
02.09.2015 01:25 13,7 C 13,6 C 89 % 1012,4 hPa 0,0 mm 0,5 km/h (0 Bft) W-NW 292 11,9 C 3,1 km/h (1 Bft)
02.09.2015 01:30 13,7 C 13,6 C 89 % 1012,4 hPa 0,0 mm 0,5 km/h (0 Bft) W-SW 247 11,9 C 6,5 km/h (2 Bft)
02.09.2015 01:35 13,7 C 13,6 C 89 % 1012,5 hPa 0,7 mm 0,3 km/h (0 Bft) W-SW 247 11,9 C 0,0 km/h (0 Bft)
02.09.2015 01:40 13,7 C 13,6 C 89 % 1012,5 hPa 0,0 mm 0,5 km/h (0 Bft) NW 315 11,9 C 2,6 km/h (1 Bft)
02.09.2015 01:45 13,6 C 13,5 C 89 % 1012,5 hPa 0,7 mm 0,5 km/h (0 Bft) W 270 11,8 C 0,0 km/h (0 Bft)
02.09.2015 01:50 13,6 C 13,5 C 89 % 1012,5 hPa 0,0 mm 1,6 km/h (1 Bft) N-NO 22 11,8 C 10,4 km/h (2 Bft)
02.09.2015 01:55 13,4 C 13,4 C 88 % 1012,4 hPa 0,0 mm 2,3 km/h (1 Bft) W 270 11,5 C 0,0 km/h (0 Bft)
02.09.2015 02:00 13,3 C 13,3 C 88 % 1012,4 hPa 0,7 mm 1,6 km/h (1 Bft) SW 225 11,4 C 0,0 km/h (0 Bft)
02.09.2015 02:05 13,3 C 13,2 C 88 % 1012,4 hPa 0,0 mm 0,5 km/h (0 Bft) SW 225 11,4 C 0,0 km/h (0 Bft)
02.09.2015 02:10 13,2 C 13,1 C 88 % 1012,4 hPa 0,7 mm 0,0 km/h (0 Bft) W-NW 292 11,3 C 0,0 km/h (0 Bft)
02.09.2015 02:15 13,2 C 13,1 C 88 % 1012,3 hPa 0,0 mm 0,5 km/h (0 Bft) W-SW 247 11,3 C 0,0 km/h (0 Bft)
02.09.2015 02:20 13,1 C 13,0 C 88 % 1012,3 hPa 0,7 mm 0,8 km/h (0 Bft) W-SW 247 11,2 C 0,0 km/h (0 Bft)
02.09.2015 02:25 13,1 C 13,0 C 88 % 1012,3 hPa 0,0 mm 0,8 km/h (0 Bft) W 270 11,2 C 6,2 km/h (2 Bft)
02.09.2015 02:30 13,1 C 13,0 C 88 % 1012,3 hPa 0,7 mm 3,1 km/h (1 Bft) W-NW 292 11,2 C 10,9 km/h (2 Bft)
02.09.2015 02:35 13,0 C 12,9 C 88 % 1012,6 hPa 0,0 mm 5,7 km/h (1 Bft) NW 315 11,1 C 10,4 km/h (2 Bft)
02.09.2015 02:40 12,9 C 12,8 C 89 % 1012,6 hPa 0,0 mm 5,2 km/h (1 Bft) W-NW 292 11,1 C 13,5 km/h (3 Bft)
02.09.2015 02:45 12,9 C 12,8 C 89 % 1012,6 hPa 0,0 mm 4,4 km/h (1 Bft) SW 225 11,1 C 0,0 km/h (0 Bft)
02.09.2015 02:50 12,9 C 12,8 C 89 % 1012,6 hPa 0,0 mm 1,3 km/h (1 Bft) W-NW 292 11,1 C 3,1 km/h (1 Bft)
02.09.2015 02:55 12,8 C 12,7 C 89 % 1012,4 hPa 0,0 mm 0,5 km/h (0 Bft) SW 225 11,0 C 0,0 km/h (0 Bft)
02.09.2015 03:00 12,8 C 12,7 C 89 % 1012,4 hPa 0,0 mm 0,3 km/h (0 Bft) SW 225 11,0 C 0,0 km/h (0 Bft)
02.09.2015 03:05 12,8 C 12,7 C 89 % 1012,4 hPa 0,0 mm 0,0 km/h (0 Bft) S 180 11,0 C 0,0 km/h (0 Bft)
02.09.2015 03:10 12,8 C 12,7 C 89 % 1012,4 hPa 0,0 mm 0,0 km/h (0 Bft) S-SW 202 11,0 C 0,0 km/h (0 Bft)
02.09.2015 03:15 12,8 C 12,7 C 89 % 1012,4 hPa 0,7 mm 0,0 km/h (0 Bft) W-SW 247 11,0 C 0,0 km/h (0 Bft)
02.09.2015 03:20 12,8 C 12,7 C 89 % 1012,4 hPa 0,0 mm 0,0 km/h (0 Bft) S-SW 202 11,0 C 0,0 km/h (0 Bft)
02.09.2015 03:25 12,7 C 12,6 C 89 % 1012,4 hPa 0,0 mm 0,3 km/h (0 Bft) NW 315 10,9 C 0,0 km/h (0 Bft)
02.09.2015 03:30 12,8 C 12,7 C 89 % 1012,4 hPa 0,0 mm 0,3 km/h (0 Bft) NW 315 11,0 C 0,0 km/h (0 Bft)
02.09.2015 03:35 12,8 C 12,7 C 89 % 1012,4 hPa 0,0 mm 0,0 km/h (0 Bft) W 270 11,0 C 0,0 km/h (0 Bft)
02.09.2015 03:40 12,8 C 12,7 C 89 % 1012,4 hPa 0,0 mm 0,0 km/h (0 Bft) W-SW 247 11,0 C 0,0 km/h (0 Bft)
02.09.2015 03:45 12,8 C 12,7 C 89 % 1012,4 hPa 0,0 mm 0,0 km/h (0 Bft) W-NW 292 11,0 C 0,0 km/h (0 Bft)
02.09.2015 03:50 12,7 C 12,6 C 89 % 1012,4 hPa 0,0 mm 0,0 km/h (0 Bft) S 180 10,9 C 0,0 km/h (0 Bft)
02.09.2015 03:55 12,6 C 12,5 C 89 % 1012,4 hPa 0,0 mm 0,0 km/h (0 Bft) SW 225 10,8 C 0,0 km/h (0 Bft)
02.09.2015 04:00 12,5 C 12,5 C 86 % 1012,4 hPa 0,0 mm 0,0 km/h (0 Bft) SW 225 10,2 C 0,0 km/h (0 Bft)
02.09.2015 04:05 12,5 C 12,5 C 86 % 1012,4 hPa 0,0 mm 0,0 km/h (0 Bft) S 180 10,2 C 0,0 km/h (0 Bft)
02.09.2015 04:10 12,5 C 12,4 C 89 % 1012,4 hPa 0,0 mm 0,0 km/h (0 Bft) SW 225 10,7 C 0,0 km/h (0 Bft)
02.09.2015 04:15 12,5 C 12,4 C 89 % 1012,3 hPa 0,0 mm 0,0 km/h (0 Bft) S 180 10,7 C 0,0 km/h (0 Bft)
02.09.2015 04:20 12,5 C 12,4 C 89 % 1012,3 hPa 0,0 mm 0,0 km/h (0 Bft) S-SW 202 10,7 C 0,0 km/h (0 Bft)
02.09.2015 04:25 12,5 C 12,4 C 89 % 1012,3 hPa 0,7 mm 0,0 km/h (0 Bft) S-SW 202 10,7 C 0,0 km/h (0 Bft)
02.09.2015 04:30 12,5 C 12,5 C 86 % 1012,3 hPa 0,0 mm 0,0 km/h (0 Bft) W-SW 247 10,2 C 0,0 km/h (0 Bft)
02.09.2015 04:35 12,5 C 12,5 C 86 % 1012,2 hPa 0,0 mm 0,0 km/h (0 Bft) SW 225 10,2 C 0,0 km/h (0 Bft)
02.09.2015 04:40 12,5 C 12,4 C 89 % 1012,2 hPa 0,0 mm 0,0 km/h (0 Bft) S 180 10,7 C 0,0 km/h (0 Bft)
02.09.2015 04:45 12,4 C 12,3 C 89 % 1012,2 hPa 0,0 mm 0,0 km/h (0 Bft) S 180 10,6 C 0,0 km/h (0 Bft)
02.09.2015 04:50 12,4 C 12,3 C 89 % 1012,2 hPa 0,0 mm 0,0 km/h (0 Bft) S 180 10,6 C 0,0 km/h (0 Bft)
02.09.2015 04:55 12,4 C 12,3 C 89 % 1012,1 hPa 0,0 mm 0,0 km/h (0 Bft) S 180 10,6 C 0,0 km/h (0 Bft)
02.09.2015 05:00 12,4 C 12,4 C 86 % 1012,1 hPa 0,0 mm 0,0 km/h (0 Bft) S 180 10,1 C 0,0 km/h (0 Bft)
02.09.2015 05:05 12,4 C 12,3 C 89 % 1012,1 hPa 0,0 mm 0,0 km/h (0 Bft) S-SO 157 10,6 C 0,0 km/h (0 Bft)
02.09.2015 05:10 12,4 C 12,4 C 86 % 1012,1 hPa 0,0 mm 0,0 km/h (0 Bft) W-SW 247 10,1 C 0,0 km/h (0 Bft)
02.09.2015 05:15 12,4 C 12,4 C 86 % 1011,9 hPa 0,0 mm 0,0 km/h (0 Bft) W-SW 247 10,1 C 0,0 km/h (0 Bft)
02.09.2015 05:20 12,4 C 12,3 C 89 % 1011,9 hPa 0,0 mm 0,0 km/h (0 Bft) SW 225 10,6 C 0,0 km/h (0 Bft)
02.09.2015 05:25 12,4 C 12,3 C 89 % 1011,9 hPa 0,0 mm 0,0 km/h (0 Bft) S 180 10,6 C 0,0 km/h (0 Bft)
02.09.2015 05:30 12,4 C 12,3 C 89 % 1011,9 hPa 0,0 mm 0,5 km/h (0 Bft) S 180 10,6 C 4,1 km/h (1 Bft)
02.09.2015 05:35 12,4 C 12,3 C 89 % 1011,8 hPa 0,0 mm 0,8 km/h (0 Bft) SW 225 10,6 C 0,0 km/h (0 Bft)
02.09.2015 05:40 12,4 C 12,4 C 86 % 1011,8 hPa 0,0 mm 0,5 km/h (0 Bft) S 180 10,1 C 0,0 km/h (0 Bft)
02.09.2015 05:45 12,4 C 12,3 C 89 % 1011,8 hPa 0,0 mm 0,0 km/h (0 Bft) S 180 10,6 C 0,0 km/h (0 Bft)
02.09.2015 05:50 12,4 C 12,3 C 89 % 1011,8 hPa 0,0 mm 0,0 km/h (0 Bft) SW 225 10,6 C 0,0 km/h (0 Bft)
02.09.2015 05:55 12,4 C 12,3 C 89 % 1011,8 hPa 0,0 mm 0,0 km/h (0 Bft) S-SO 157 10,6 C 0,0 km/h (0 Bft)
02.09.2015 06:00 12,4 C 12,3 C 89 % 1011,8 hPa 0,0 mm 0,0 km/h (0 Bft) W-SW 247 10,6 C 0,0 km/h (0 Bft)
02.09.2015 06:05 12,3 C 12,3 C 87 % 1011,8 hPa 0,0 mm 0,0 km/h (0 Bft) S-SO 157 10,2 C 0,0 km/h (0 Bft)
02.09.2015 06:10 12,3 C 12,2 C 89 % 1011,8 hPa 0,7 mm 0,0 km/h (0 Bft) S-SO 157 10,5 C 0,0 km/h (0 Bft)
02.09.2015 06:15 12,3 C 12,2 C 89 % 1011,8 hPa 0,0 mm 0,0 km/h (0 Bft) S-SO 157 10,5 C 0,0 km/h (0 Bft)
02.09.2015 06:20 12,3 C 12,2 C 89 % 1011,8 hPa 0,0 mm 0,0 km/h (0 Bft) S 180 10,5 C 0,0 km/h (0 Bft)
02.09.2015 06:25 12,3 C 12,3 C 87 % 1011,8 hPa 0,0 mm 0,0 km/h (0 Bft) S-SW 202 10,2 C 0,0 km/h (0 Bft)
02.09.2015 06:30 12,3 C 12,3 C 87 % 1011,8 hPa 0,0 mm 0,0 km/h (0 Bft) S-SO 157 10,2 C 0,0 km/h (0 Bft)
02.09.2015 06:35 12,3 C 12,2 C 89 % 1011,6 hPa 0,0 mm 0,0 km/h (0 Bft) S-SO 157 10,5 C 0,0 km/h (0 Bft)
02.09.2015 06:40 12,3 C 12,2 C 89 % 1011,6 hPa 0,0 mm 0,0 km/h (0 Bft) S-SO 157 10,5 C 0,0 km/h (0 Bft)
02.09.2015 06:41 12,3 C 12,2 C 89 % 1011,6 hPa 0,0 mm 0,0 km/h (0 Bft) S-SO 157 10,5 C 0,0 km/h (0 Bft)
02.09.2015 06:45 12,3 C 12,2 C 89 % 1011,6 hPa 0,0 mm 0,0 km/h (0 Bft) S-SO 157 10,5 C 0,0 km/h (0 Bft)
02.09.2015 06:50 12,3 C 12,2 C 89 % 1011,6 hPa 0,0 mm 0,0 km/h (0 Bft) S-SO 157 10,5 C 0,0 km/h (0 Bft)
02.09.2015 06:55 12,3 C 12,3 C 87 % 1011,7 hPa 0,0 mm 0,0 km/h (0 Bft) S-SO 157 10,2 C 0,0 km/h (0 Bft)
02.09.2015 07:00 12,3 C 12,3 C 87 % 1011,7 hPa 0,0 mm 0,0 km/h (0 Bft) W-SW 247 10,2 C 2,6 km/h (1 Bft)
02.09.2015 07:05 12,3 C 12,3 C 87 % 1011,7 hPa 0,0 mm 0,5 km/h (0 Bft) W-NW 292 10,2 C 0,0 km/h (0 Bft)
02.09.2015 07:10 12,4 C 12,3 C 89 % 1011,7 hPa 0,0 mm 1,3 km/h (1 Bft) W 270 10,6 C 0,0 km/h (0 Bft)
02.09.2015 07:15 12,3 C 12,3 C 87 % 1011,8 hPa 0,0 mm 1,0 km/h (0 Bft) NW 315 10,2 C 0,0 km/h (0 Bft)
02.09.2015 07:20 12,4 C 12,4 C 87 % 1011,8 hPa 0,7 mm 0,5 km/h (0 Bft) W 270 10,3 C 0,0 km/h (0 Bft)
02.09.2015 07:25 12,4 C 12,4 C 87 % 1011,8 hPa 0,0 mm 0,5 km/h (0 Bft) W-SW 247 10,3 C 0,0 km/h (0 Bft)
02.09.2015 07:30 12,3 C 12,4 C 87 % 1011,8 hPa 0,0 mm 0,3 km/h (0 Bft) S-SW 202 10,2 C 0,0 km/h (0 Bft)
02.09.2015 07:35 12,3 C 12,4 C 87 % 1011,8 hPa 0,0 mm 0,0 km/h (0 Bft) S 180 10,2 C 0,0 km/h (0 Bft)
02.09.2015 07:40 12,4 C 12,4 C 87 % 1011,8 hPa 0,0 mm 0,0 km/h (0 Bft) SW 225 10,3 C 0,0 km/h (0 Bft)
02.09.2015 07:45 12,4 C 12,5 C 87 % 1011,8 hPa 0,0 mm 0,0 km/h (0 Bft) SW 225 10,3 C 0,0 km/h (0 Bft)
02.09.2015 07:50 12,4 C 12,6 C 87 % 1011,8 hPa 0,0 mm 0,0 km/h (0 Bft) S-SW 202 10,3 C 0,0 km/h (0 Bft)
02.09.2015 07:55 12,4 C 12,6 C 87 % 1011,8 hPa 0,0 mm 0,0 km/h (0 Bft) S 180 10,3 C 0,0 km/h (0 Bft)
02.09.2015 08:00 12,5 C 12,7 C 87 % 1011,8 hPa 0,0 mm 0,0 km/h (0 Bft) SW 225 10,4 C 0,0 km/h (0 Bft)
02.09.2015 08:05 12,5 C 12,7 C 87 % 1011,8 hPa 0,0 mm 0,0 km/h (0 Bft) W 270 10,4 C 0,0 km/h (0 Bft)
02.09.2015 08:10 12,6 C 12,7 C 87 % 1011,8 hPa 0,0 mm 0,0 km/h (0 Bft) W 270 10,5 C 0,0 km/h (0 Bft)
02.09.2015 08:15 12,6 C 12,8 C 87 % 1011,8 hPa 0,0 mm 0,0 km/h (0 Bft) N-NW 337 10,5 C 0,0 km/h (0 Bft)
02.09.2015 08:20 12,7 C 12,7 C 87 % 1011,8 hPa 0,0 mm 0,0 km/h (0 Bft) W 270 10,6 C 2,8 km/h (1 Bft)
02.09.2015 08:25 12,6 C 12,7 C 87 % 1011,8 hPa 0,0 mm 0,5 km/h (0 Bft) W-NW 292 10,5 C 3,1 km/h (1 Bft)
02.09.2015 08:30 12,6 C 12,6 C 87 % 1011,8 hPa 0,0 mm 0,8 km/h (0 Bft) NW 315 10,5 C 0,0 km/h (0 Bft)
02.09.2015 08:35 12,6 C 12,6 C 87 % 1011,8 hPa 0,0 mm 0,5 km/h (0 Bft) W 270 10,5 C 0,0 km/h (0 Bft)
02.09.2015 08:40 12,5 C 12,6 C 87 % 1011,8 hPa 0,7 mm 0,0 km/h (0 Bft) W 270 10,4 C 0,0 km/h (0 Bft)
02.09.2015 08:45 12,5 C 12,6 C 87 % 1011,8 hPa 0,0 mm 0,0 km/h (0 Bft) W-SW 247 10,4 C 0,0 km/h (0 Bft)
02.09.2015 08:50 12,4 C 12,4 C 87 % 1011,8 hPa 0,0 mm 0,0 km/h (0 Bft) W-SW 247 10,3 C 0,0 km/h (0 Bft)
02.09.2015 08:55 12,5 C 12,5 C 87 % 1011,6 hPa 0,0 mm 0,0 km/h (0 Bft) O 90 10,4 C 0,0 km/h (0 Bft)
02.09.2015 09:00 12,6 C 12,7 C 87 % 1011,6 hPa 0,0 mm 0,0 km/h (0 Bft) W 270 10,5 C 0,0 km/h (0 Bft)
02.09.2015 09:05 12,6 C 12,8 C 87 % 1011,6 hPa 0,0 mm 0,0 km/h (0 Bft) NW 315 10,5 C 0,0 km/h (0 Bft)
02.09.2015 09:10 12,7 C 12,8 C 87 % 1011,6 hPa 0,0 mm 0,0 km/h (0 Bft) SO 135 10,6 C 0,0 km/h (0 Bft)
02.09.2015 09:15 12,7 C 13,0 C 87 % 1011,6 hPa 0,0 mm 0,0 km/h (0 Bft) S 180 10,6 C 0,0 km/h (0 Bft)
02.09.2015 09:20 12,8 C 13,0 C 87 % 1011,6 hPa 0,0 mm 0,0 km/h (0 Bft) O-NO 67 10,7 C 0,0 km/h (0 Bft)
02.09.2015 09:25 12,8 C 13,0 C 87 % 1011,6 hPa 0,0 mm 0,0 km/h (0 Bft) NO 45 10,7 C 0,0 km/h (0 Bft)
02.09.2015 09:30 13,0 C 13,1 C 86 % 1011,6 hPa 0,0 mm 0,0 km/h (0 Bft) NO 45 10,7 C 0,0 km/h (0 Bft)
02.09.2015 09:35 13,0 C 13,2 C 86 % 1011,7 hPa 0,0 mm 0,0 km/h (0 Bft) SO 135 10,7 C 0,0 km/h (0 Bft)
02.09.2015 09:40 13,0 C 13,3 C 86 % 1011,7 hPa 0,0 mm 0,0 km/h (0 Bft) SO 135 10,7 C 0,0 km/h (0 Bft)
02.09.2015 09:45 13,1 C 13,4 C 86 % 1011,7 hPa 0,0 mm 0,0 km/h (0 Bft) W 270 10,8 C 0,0 km/h (0 Bft)
02.09.2015 09:50 13,2 C 13,4 C 86 % 1011,7 hPa 0,0 mm 0,3 km/h (0 Bft) W-NW 292 10,9 C 3,4 km/h (1 Bft)
02.09.2015 09:55 13,2 C 13,4 C 86 % 1011,6 hPa 0,0 mm 0,3 km/h (0 Bft) NW 315 10,9 C 0,0 km/h (0 Bft)
02.09.2015 10:00 13,2 C 13,2 C 86 % 1011,6 hPa 0,0 mm 0,3 km/h (0 Bft) N 360 10,9 C 0,0 km/h (0 Bft)
02.09.2015 10:05 13,1 C 13,1 C 86 % 1011,6 hPa 0,0 mm 0,8 km/h (0 Bft) NO 45 10,8 C 6,7 km/h (2 Bft)
02.09.2015 10:10 12,8 C 12,7 C 88 % 1011,6 hPa 0,0 mm 3,6 km/h (1 Bft) N 360 10,9 C 8,5 km/h (2 Bft)
02.09.2015 10:15 12,8 C 12,7 C 88 % 1011,8 hPa 0,7 mm 4,9 km/h (1 Bft) N-NW 337 10,9 C 3,6 km/h (1 Bft)
02.09.2015 10:20 12,7 C 12,6 C 88 % 1011,8 hPa 0,7 mm 4,1 km/h (1 Bft) N-NO 22 10,8 C 4,4 km/h (1 Bft)
02.09.2015 10:25 12,7 C 12,7 C 86 % 1011,8 hPa 0,0 mm 3,1 km/h (1 Bft) N-NO 22 10,4 C 4,1 km/h (1 Bft)
02.09.2015 10:30 12,7 C 12,8 C 86 % 1011,8 hPa 0,7 mm 2,3 km/h (1 Bft) NW 315 10,4 C 4,9 km/h (1 Bft)
02.09.2015 10:35 12,7 C 12,8 C 86 % 1011,6 hPa 0,0 mm 2,3 km/h (1 Bft) O-NO 67 10,4 C 7,8 km/h (2 Bft)
02.09.2015 10:40 12,6 C 12,7 C 86 % 1011,6 hPa 0,0 mm 4,4 km/h (1 Bft) NO 45 10,3 C 4,7 km/h (1 Bft)
02.09.2015 10:45 12,6 C 12,7 C 86 % 1011,6 hPa 0,0 mm 5,2 km/h (1 Bft) O-NO 67 10,3 C 5,2 km/h (1 Bft)
02.09.2015 10:50 12,6 C 12,9 C 86 % 1011,6 hPa 0,0 mm 2,8 km/h (1 Bft) SO 135 10,3 C 0,0 km/h (0 Bft)
02.09.2015 10:55 12,6 C 12,8 C 86 % 1011,7 hPa 0,0 mm 3,4 km/h (1 Bft) SO 135 10,3 C 5,2 km/h (1 Bft)
02.09.2015 11:00 12,5 C 12,7 C 86 % 1011,7 hPa 0,0 mm 4,4 km/h (1 Bft) NO 45 10,2 C 0,0 km/h (0 Bft)
02.09.2015 11:05 12,5 C 12,9 C 86 % 1011,7 hPa 0,0 mm 3,9 km/h (1 Bft) N 360 10,2 C 7,3 km/h (2 Bft)
02.09.2015 11:10 12,6 C 12,9 C 86 % 1011,7 hPa 0,7 mm 3,9 km/h (1 Bft) O-SO 112 10,3 C 3,1 km/h (1 Bft)
02.09.2015 11:15 12,5 C 12,9 C 86 % 1011,6 hPa 0,0 mm 4,4 km/h (1 Bft) O 90 10,2 C 0,0 km/h (0 Bft)
02.09.2015 11:20 12,5 C 12,8 C 86 % 1011,6 hPa 0,0 mm 2,3 km/h (1 Bft) SO 135 10,2 C 3,1 km/h (1 Bft)
02.09.2015 11:25 12,5 C 12,8 C 86 % 1011,6 hPa 0,0 mm 1,6 km/h (1 Bft) N-NO 22 10,2 C 5,4 km/h (1 Bft)
02.09.2015 11:30 12,5 C 12,8 C 86 % 1011,6 hPa 0,0 mm 2,3 km/h (1 Bft) NO 45 10,2 C 0,0 km/h (0 Bft)
02.09.2015 11:35 12,5 C 12,7 C 86 % 1011,8 hPa 0,0 mm 2,6 km/h (1 Bft) NO 45 10,2 C 0,0 km/h (0 Bft)
02.09.2015 11:40 12,5 C 12,7 C 86 % 1011,8 hPa 0,0 mm 1,6 km/h (1 Bft) NO 45 10,2 C 0,0 km/h (0 Bft)
02.09.2015 11:45 12,5 C 12,8 C 86 % 1011,8 hPa 0,0 mm 2,1 km/h (1 Bft) O-SO 112 10,2 C 4,1 km/h (1 Bft)
02.09.2015 11:50 12,6 C 12,9 C 87 % 1011,8 hPa 0,0 mm 2,3 km/h (1 Bft) NW 315 10,5 C 3,9 km/h (1 Bft)
02.09.2015 11:55 12,7 C 13,0 C 87 % 1011,6 hPa 0,0 mm 2,3 km/h (1 Bft) O-NO 67 10,6 C 0,0 km/h (0 Bft)
02.09.2015 12:00 12,8 C 13,1 C 87 % 1011,6 hPa 0,0 mm 2,3 km/h (1 Bft) N 360 10,7 C 5,2 km/h (1 Bft)
02.09.2015 12:05 12,9 C 13,0 C 86 % 1011,6 hPa 0,0 mm 2,3 km/h (1 Bft) N-NW 337 10,6 C 6,7 km/h (2 Bft)
02.09.2015 12:10 12,8 C 13,0 C 86 % 1011,6 hPa 0,0 mm 2,8 km/h (1 Bft) N-NW 337 10,5 C 0,0 km/h (0 Bft)
02.09.2015 12:15 13,0 C 13,1 C 86 % 1011,4 hPa 0,0 mm 2,1 km/h (1 Bft) W-NW 292 10,7 C 0,0 km/h (0 Bft)
02.09.2015 12:20 12,9 C 13,0 C 86 % 1011,4 hPa 0,0 mm 1,8 km/h (1 Bft) N-NO 22 10,6 C 6,5 km/h (2 Bft)
02.09.2015 12:25 12,8 C 12,8 C 86 % 1011,4 hPa 0,0 mm 2,3 km/h (1 Bft) N-NO 22 10,5 C 5,2 km/h (1 Bft)
02.09.2015 12:30 12,7 C 12,7 C 86 % 1011,4 hPa 0,0 mm 3,1 km/h (1 Bft) N-NW 337 10,4 C 6,2 km/h (2 Bft)
02.09.2015 12:35 12,7 C 12,7 C 87 % 1011,4 hPa 0,0 mm 2,6 km/h (1 Bft) N-NO 22 10,6 C 0,0 km/h (0 Bft)
02.09.2015 12:40 12,7 C 12,8 C 87 % 1011,4 hPa 0,0 mm 1,3 km/h (1 Bft) O-NO 67 10,6 C 3,1 km/h (1 Bft)
02.09.2015 12:42 12,7 C 12,7 C 87 % 1011,4 hPa 0,0 mm 0,8 km/h (0 Bft) N-NO 22 10,6 C 0,0 km/h (0 Bft)
02.09.2015 12:45 12,7 C 12,7 C 87 % 1011,4 hPa 0,0 mm 0,8 km/h (0 Bft) N-NO 22 10,6 C 0,0 km/h (0 Bft)
02.09.2015 12:50 12,6 C 12,6 C 87 % 1011,4 hPa 0,7 mm 0,5 km/h (0 Bft) SO 135 10,5 C 0,0 km/h (0 Bft)
02.09.2015 12:55 12,6 C 12,6 C 87 % 1011,3 hPa 0,0 mm 0,0 km/h (0 Bft) O 90 10,5 C 0,0 km/h (0 Bft)
02.09.2015 13:00 12,6 C 12,6 C 86 % 1011,3 hPa 0,0 mm 0,0 km/h (0 Bft) N-NW 337 10,3 C 0,0 km/h (0 Bft)
02.09.2015 13:05 12,6 C 12,6 C 86 % 1011,3 hPa 0,0 mm 0,0 km/h (0 Bft) N-NO 22 10,3 C 0,0 km/h (0 Bft)
02.09.2015 13:10 12,6 C 12,7 C 87 % 1011,3 hPa 0,0 mm 0,3 km/h (0 Bft) NW 315 10,5 C 0,0 km/h (0 Bft)
02.09.2015 13:15 12,7 C 12,8 C 87 % 1011,4 hPa 0,7 mm 0,3 km/h (0 Bft) NW 315 10,6 C 0,0 km/h (0 Bft)
02.09.2015 13:20 12,8 C 13,0 C 87 % 1011,4 hPa 0,0 mm 0,0 km/h (0 Bft) N-NW 337 10,7 C 0,0 km/h (0 Bft)
02.09.2015 13:25 12,8 C 13,1 C 87 % 1011,4 hPa 0,0 mm 0,0 km/h (0 Bft) O 90 10,7 C 0,0 km/h (0 Bft)
02.09.2015 13:30 12,9 C 13,1 C 86 % 1011,4 hPa 0,0 mm 0,0 km/h (0 Bft) O-SO 112 10,6 C 0,0 km/h (0 Bft)
02.09.2015 13:35 12,9 C 13,1 C 86 % 1011,1 hPa 0,0 mm 0,0 km/h (0 Bft) O 90 10,6 C 0,0 km/h (0 Bft)
02.09.2015 13:40 12,9 C 13,2 C 86 % 1011,1 hPa 0,0 mm 0,0 km/h (0 Bft) W 270 10,6 C 0,0 km/h (0 Bft)
02.09.2015 13:45 12,9 C 13,3 C 86 % 1011,1 hPa 0,0 mm 0,0 km/h (0 Bft) W-SW 247 10,6 C 0,0 km/h (0 Bft)
02.09.2015 13:50 13,1 C 13,3 C 86 % 1011,1 hPa 0,0 mm 0,0 km/h (0 Bft) O-NO 67 10,8 C 0,0 km/h (0 Bft)
02.09.2015 13:55 13,0 C 13,3 C 86 % 1011,2 hPa 0,7 mm 0,0 km/h (0 Bft) O-SO 112 10,7 C 0,0 km/h (0 Bft)
02.09.2015 14:00 13,0 C 13,1 C 86 % 1011,2 hPa 0,0 mm 0,0 km/h (0 Bft) SO 135 10,7 C 0,0 km/h (0 Bft)
02.09.2015 14:05 12,9 C 13,0 C 86 % 1011,2 hPa 0,0 mm 0,0 km/h (0 Bft) O-NO 67 10,6 C 0,0 km/h (0 Bft)
02.09.2015 14:10 13,0 C 12,9 C 86 % 1011,2 hPa 0,0 mm 0,0 km/h (0 Bft) O-NO 67 10,7 C 0,0 km/h (0 Bft)
02.09.2015 14:15 13,0 C 12,9 C 86 % 1010,9 hPa 0,0 mm 0,0 km/h (0 Bft) NO 45 10,7 C 0,0 km/h (0 Bft)
02.09.2015 14:20 12,9 C 12,8 C 87 % 1010,9 hPa 0,7 mm 0,5 km/h (0 Bft) SO 135 10,8 C 2,8 km/h (1 Bft)
02.09.2015 14:25 12,9 C 12,9 C 86 % 1010,9 hPa 0,0 mm 0,5 km/h (0 Bft) N-NO 22 10,6 C 0,0 km/h (0 Bft)
02.09.2015 14:30 12,9 C 13,0 C 86 % 1010,9 hPa 0,7 mm 0,3 km/h (0 Bft) O-NO 67 10,6 C 0,0 km/h (0 Bft)
02.09.2015 14:35 12,9 C 13,0 C 86 % 1010,8 hPa 0,0 mm 0,3 km/h (0 Bft) N-NW 337 10,6 C 0,0 km/h (0 Bft)
02.09.2015 14:40 13,0 C 13,1 C 86 % 1010,8 hPa 0,0 mm 0,5 km/h (0 Bft) NO 45 10,7 C 3,4 km/h (1 Bft)
02.09.2015 14:45 13,0 C 13,1 C 86 % 1010,8 hPa 0,7 mm 0,5 km/h (0 Bft) N-NO 22 10,7 C 0,0 km/h (0 Bft)
02.09.2015 14:50 13,1 C 13,2 C 86 % 1010,8 hPa 0,0 mm 0,8 km/h (0 Bft) O-NO 67 10,8 C 3,6 km/h (1 Bft)
02.09.2015 14:55 13,1 C 13,2 C 86 % 1010,8 hPa 0,7 mm 1,0 km/h (0 Bft) O-SO 112 10,8 C 2,6 km/h (1 Bft)
02.09.2015 15:00 13,1 C 13,2 C 86 % 1010,8 hPa 0,0 mm 3,4 km/h (1 Bft) N-NO 22 10,8 C 6,2 km/h (2 Bft)
02.09.2015 15:05 13,1 C 13,3 C 86 % 1010,8 hPa 0,0 mm 3,4 km/h (1 Bft) O-SO 112 10,8 C 6,2 km/h (2 Bft)
02.09.2015 15:10 13,1 C 13,1 C 86 % 1010,8 hPa 0,0 mm 2,8 km/h (1 Bft) NO 45 10,8 C 0,0 km/h (0 Bft)
02.09.2015 15:15 13,0 C 13,2 C 86 % 1010,8 hPa 0,0 mm 3,6 km/h (1 Bft) N-NO 22 10,7 C 5,4 km/h (1 Bft)
02.09.2015 15:20 13,1 C 13,1 C 86 % 1010,8 hPa 0,0 mm 4,1 km/h (1 Bft) N-NO 22 10,8 C 7,8 km/h (2 Bft)
02.09.2015 15:25 13,1 C 13,2 C 86 % 1010,8 hPa 0,0 mm 3,6 km/h (1 Bft) O-NO 67 10,8 C 0,0 km/h (0 Bft)
02.09.2015 15:30 13,2 C 13,5 C 86 % 1010,8 hPa 0,0 mm 2,3 km/h (1 Bft) S-SO 157 10,9 C 6,0 km/h (2 Bft)
02.09.2015 15:35 13,3 C 13,6 C 86 % 1010,6 hPa 0,0 mm 2,6 km/h (1 Bft) NO 45 11,0 C 4,9 km/h (1 Bft)
02.09.2015 15:40 13,4 C 14,0 C 86 % 1010,6 hPa 0,0 mm 3,6 km/h (1 Bft) O-NO 67 11,1 C 8,3 km/h (2 Bft)
02.09.2015 15:45 13,5 C 14,1 C 86 % 1010,6 hPa 0,0 mm 3,6 km/h (1 Bft) NO 45 11,2 C 6,0 km/h (2 Bft)
02.09.2015 15:50 13,6 C 14,0 C 86 % 1010,6 hPa 0,0 mm 3,4 km/h (1 Bft) O-NO 67 11,3 C 3,4 km/h (1 Bft)
02.09.2015 15:55 13,5 C 13,9 C 85 % 1010,3 hPa 0,0 mm 4,4 km/h (1 Bft) N-NO 22 11,0 C 6,0 km/h (2 Bft)
02.09.2015 16:00 13,5 C 13,7 C 85 % 1010,3 hPa 0,0 mm 4,7 km/h (1 Bft) NO 45 11,0 C 5,7 km/h (1 Bft)
02.09.2015 16:05 13,4 C 13,6 C 85 % 1010,3 hPa 0,0 mm 3,6 km/h (1 Bft) N-NO 22 10,9 C 0,0 km/h (0 Bft)
02.09.2015 16:10 13,3 C 13,4 C 85 % 1010,3 hPa 0,0 mm 1,6 km/h (1 Bft) N-NO 22 10,8 C 7,5 km/h (2 Bft)
02.09.2015 16:15 13,3 C 13,4 C 85 % 1010,5 hPa 0,0 mm 1,0 km/h (0 Bft) SO 135 10,8 C 0,0 km/h (0 Bft)
02.09.2015 16:20 13,4 C 13,5 C 85 % 1010,5 hPa 0,0 mm 1,0 km/h (0 Bft) NO 45 10,9 C 3,4 km/h (1 Bft)
02.09.2015 16:25 13,4 C 13,5 C 85 % 1010,5 hPa 0,0 mm 0,3 km/h (0 Bft) N-NO 22 10,9 C 0,0 km/h (0 Bft)
02.09.2015 16:30 13,3 C 13,2 C 86 % 1010,5 hPa 0,0 mm 0,5 km/h (0 Bft) NO 45 11,0 C 2,8 km/h (1 Bft)
02.09.2015 16:35 13,2 C 13,1 C 86 % 1010,6 hPa 0,0 mm 0,8 km/h (0 Bft) NO 45 10,9 C 0,0 km/h (0 Bft)
02.09.2015 16:40 13,1 C 13,2 C 85 % 1010,6 hPa 0,7 mm 1,6 km/h (1 Bft) O-NO 67 10,6 C 4,7 km/h (1 Bft)
02.09.2015 16:45 13,0 C 13,1 C 85 % 1010,6 hPa 0,0 mm 2,1 km/h (1 Bft) N-NO 22 10,5 C 0,0 km/h (0 Bft)
02.09.2015 16:50 13,1 C 13,1 C 85 % 1010,6 hPa 0,0 mm 1,6 km/h (1 Bft) NO 45 10,6 C 0,0 km/h (0 Bft)
02.09.2015 16:55 13,1 C 13,1 C 85 % 1010,8 hPa 0,0 mm 2,1 km/h (1 Bft) O 90 10,6 C 7,5 km/h (2 Bft)
02.09.2015 17:00 13,0 C 13,1 C 85 % 1010,8 hPa 0,0 mm 2,3 km/h (1 Bft) NO 45 10,5 C 0,0 km/h (0 Bft)
02.09.2015 17:05 13,0 C 13,0 C 85 % 1010,8 hPa 0,0 mm 1,3 km/h (1 Bft) O-NO 67 10,5 C 3,4 km/h (1 Bft)
02.09.2015 17:10 13,0 C 12,9 C 87 % 1010,8 hPa 0,0 mm 1,0 km/h (0 Bft) O-NO 67 10,9 C 3,1 km/h (1 Bft)
02.09.2015 17:15 13,0 C 13,0 C 85 % 1010,8 hPa 0,0 mm 2,3 km/h (1 Bft) NO 45 10,5 C 6,2 km/h (2 Bft)
02.09.2015 17:20 13,0 C 13,0 C 85 % 1010,8 hPa 0,0 mm 3,9 km/h (1 Bft) N-NO 22 10,5 C 2,8 km/h (1 Bft)
02.09.2015 17:25 13,1 C 13,1 C 85 % 1010,8 hPa 0,0 mm 4,4 km/h (1 Bft) N 360 10,6 C 10,1 km/h (2 Bft)
02.09.2015 17:30 13,0 C 12,9 C 87 % 1010,8 hPa 0,0 mm 4,9 km/h (1 Bft) N-NW 337 10,9 C 7,3 km/h (2 Bft)
02.09.2015 17:35 12,9 C 12,9 C 86 % 1010,9 hPa 0,0 mm 6,0 km/h (2 Bft) W-NW 292 10,6 C 5,2 km/h (1 Bft)
02.09.2015 17:40 12,9 C 12,9 C 86 % 1010,9 hPa 0,0 mm 5,4 km/h (1 Bft) NO 45 10,6 C 6,0 km/h (2 Bft)
02.09.2015 17:45 12,9 C 12,9 C 86 % 1010,9 hPa 0,0 mm 4,1 km/h (1 Bft) N-NO 22 10,6 C 4,7 km/h (1 Bft)
02.09.2015 17:50 12,9 C 12,9 C 86 % 1010,9 hPa 0,0 mm 2,6 km/h (1 Bft) NO 45 10,6 C 2,6 km/h (1 Bft)
02.09.2015 17:55 12,9 C 12,8 C 88 % 1010,8 hPa 0,0 mm 2,3 km/h (1 Bft) N-NO 22 11,0 C 2,6 km/h (1 Bft)
02.09.2015 18:00 12,9 C 13,0 C 86 % 1010,8 hPa 0,0 mm 0,8 km/h (0 Bft) NW 315 10,6 C 0,0 km/h (0 Bft)
02.09.2015 18:05 13,0 C 13,0 C 86 % 1010,8 hPa 0,0 mm 0,5 km/h (0 Bft) N-NO 22 10,7 C 3,6 km/h (1 Bft)
02.09.2015 18:10 13,0 C 13,0 C 86 % 1010,8 hPa 0,0 mm 0,5 km/h (0 Bft) O-NO 67 10,7 C 0,0 km/h (0 Bft)
02.09.2015 18:15 12,9 C 13,0 C 86 % 1010,8 hPa 0,0 mm 0,5 km/h (0 Bft) N-NW 337 10,6 C 5,2 km/h (1 Bft)
02.09.2015 18:20 13,0 C 12,9 C 87 % 1010,8 hPa 0,0 mm 1,8 km/h (1 Bft) NW 315 10,9 C 6,2 km/h (2 Bft)
02.09.2015 18:25 12,9 C 12,9 C 86 % 1010,8 hPa 0,0 mm 2,3 km/h (1 Bft) O-NO 67 10,6 C 0,0 km/h (0 Bft)
02.09.2015 18:30 12,9 C 12,8 C 88 % 1010,8 hPa 0,0 mm 2,3 km/h (1 Bft) N-NW 337 11,0 C 0,0 km/h (0 Bft)
02.09.2015 18:35 12,9 C 12,9 C 86 % 1010,8 hPa 0,0 mm 1,6 km/h (1 Bft) NO 45 10,6 C 2,6 km/h (1 Bft)
02.09.2015 18:40 12,9 C 12,9 C 86 % 1010,8 hPa 0,0 mm 0,8 km/h (0 Bft) NO 45 10,6 C 2,8 km/h (1 Bft)
02.09.2015 18:43 12,9 C 12,9 C 86 % 1010,8 hPa 0,0 mm 1,0 km/h (0 Bft) N-NO 22 10,6 C 0,0 km/h (0 Bft)
02.09.2015 18:45 12,9 C 12,9 C 86 % 1010,8 hPa 0,0 mm 1,0 km/h (0 Bft) N-NO 22 10,6 C 0,0 km/h (0 Bft)
02.09.2015 18:50 12,9 C 12,9 C 86 % 1010,8 hPa 0,0 mm 0,3 km/h (0 Bft) O-NO 67 10,6 C 0,0 km/h (0 Bft)
02.09.2015 18:55 12,9 C 12,9 C 86 % 1010,8 hPa 0,0 mm 0,3 km/h (0 Bft) N-NO 22 10,6 C 0,0 km/h (0 Bft)
02.09.2015 19:00 12,9 C 12,8 C 88 % 1010,8 hPa 0,0 mm 1,8 km/h (1 Bft) N-NO 22 11,0 C 2,8 km/h (1 Bft)
02.09.2015 19:05 12,9 C 12,8 C 86 % 1010,8 hPa 0,0 mm 1,6 km/h (1 Bft) N-NW 337 10,6 C 5,2 km/h (1 Bft)
02.09.2015 19:10 12,9 C 12,8 C 88 % 1010,8 hPa 0,0 mm 1,6 km/h (1 Bft) N-NO 22 11,0 C 7,5 km/h (2 Bft)
02.09.2015 19:15 12,9 C 12,8 C 88 % 1010,9 hPa 0,0 mm 2,6 km/h (1 Bft) O-NO 67 11,0 C 4,1 km/h (1 Bft)
02.09.2015 19:20 12,8 C 12,7 C 86 % 1010,9 hPa 0,0 mm 3,4 km/h (1 Bft) N-NO 22 10,5 C 4,4 km/h (1 Bft)
02.09.2015 19:25 12,8 C 12,7 C 88 % 1010,9 hPa 0,0 mm 3,6 km/h (1 Bft) N 360 10,9 C 4,4 km/h (1 Bft)
02.09.2015 19:30 12,7 C 12,6 C 88 % 1010,9 hPa 0,0 mm 4,9 km/h (1 Bft) NW 315 10,8 C 9,3 km/h (2 Bft)
02.09.2015 19:35 12,7 C 12,6 C 88 % 1010,9 hPa 0,0 mm 4,4 km/h (1 Bft) N-NW 337 10,8 C 2,8 km/h (1 Bft)
02.09.2015 19:40 12,7 C 12,6 C 88 % 1010,9 hPa 0,0 mm 3,6 km/h (1 Bft) N-NO 22 10,8 C 0,0 km/h (0 Bft)
02.09.2015 19:45 12,7 C 12,6 C 88 % 1010,9 hPa 0,0 mm 3,6 km/h (1 Bft) N-NO 22 10,8 C 4,7 km/h (1 Bft)
02.09.2015 19:50 12,7 C 12,6 C 88 % 1010,9 hPa 0,0 mm 2,3 km/h (1 Bft) N-NO 22 10,8 C 6,5 km/h (2 Bft)
02.09.2015 19:55 12,7 C 12,6 C 88 % 1010,9 hPa 0,0 mm 3,4 km/h (1 Bft) NW 315 10,8 C 6,7 km/h (2 Bft)
02.09.2015 20:00 12,6 C 12,5 C 88 % 1010,9 hPa 0,0 mm 4,4 km/h (1 Bft) N-NO 22 10,7 C 5,7 km/h (1 Bft)
02.09.2015 20:05 12,6 C 12,5 C 88 % 1010,9 hPa 0,0 mm 2,8 km/h (1 Bft) N-NW 337 10,7 C 3,9 km/h (1 Bft)
02.09.2015 20:10 12,6 C 12,5 C 88 % 1010,9 hPa 0,0 mm 2,3 km/h (1 Bft) O-NO 67 10,7 C 2,8 km/h (1 Bft)
02.09.2015 20:15 12,6 C 12,5 C 88 % 1010,9 hPa 0,0 mm 1,8 km/h (1 Bft) O-SO 112 10,7 C 3,9 km/h (1 Bft)
02.09.2015 20:20 12,5 C 12,4 C 89 % 1010,9 hPa 0,0 mm 1,3 km/h (1 Bft) O 90 10,7 C 0,0 km/h (0 Bft)
02.09.2015 20:25 12,5 C 12,4 C 89 % 1010,9 hPa 0,0 mm 1,6 km/h (1 Bft) O 90 10,7 C 3,6 km/h (1 Bft)
02.09.2015 20:30 12,5 C 12,4 C 89 % 1010,9 hPa 0,0 mm 0,8 km/h (0 Bft) O-NO 67 10,7 C 0,0 km/h (0 Bft)
02.09.2015 20:35 12,5 C 12,4 C 89 % 1010,8 hPa 0,0 mm 0,8 km/h (0 Bft) O-NO 67 10,7 C 0,0 km/h (0 Bft)
02.09.2015 20:40 12,5 C 12,4 C 89 % 1010,8 hPa 0,0 mm 0,3 km/h (0 Bft) NO 45 10,7 C 0,0 km/h (0 Bft)
02.09.2015 20:45 12,5 C 12,4 C 89 % 1010,8 hPa 0,0 mm 0,0 km/h (0 Bft) NO 45 10,7 C 0,0 km/h (0 Bft)
02.09.2015 20:50 12,5 C 12,4 C 89 % 1010,8 hPa 0,0 mm 0,3 km/h (0 Bft) O-NO 67 10,7 C 3,1 km/h (1 Bft)
02.09.2015 20:55 12,5 C 12,4 C 89 % 1010,8 hPa 0,0 mm 1,6 km/h (1 Bft) N-NO 22 10,7 C 2,8 km/h (1 Bft)
02.09.2015 21:00 12,5 C 12,4 C 89 % 1010,8 hPa 0,0 mm 1,8 km/h (1 Bft) O-NO 67 10,7 C 0,0 km/h (0 Bft)
02.09.2015 21:05 12,5 C 12,4 C 89 % 1010,8 hPa 0,0 mm 1,0 km/h (0 Bft) N-NO 22 10,7 C 3,4 km/h (1 Bft)
02.09.2015 21:10 12,5 C 12,4 C 89 % 1010,8 hPa 0,0 mm 2,1 km/h (1 Bft) N-NO 22 10,7 C 2,6 km/h (1 Bft)
02.09.2015 21:15 12,5 C 12,4 C 89 % 1011,1 hPa 0,0 mm 2,3 km/h (1 Bft) NO 45 10,7 C 4,7 km/h (1 Bft)
02.09.2015 21:20 12,4 C 12,4 C 87 % 1011,1 hPa 0,0 mm 1,3 km/h (1 Bft) NO 45 10,3 C 3,9 km/h (1 Bft)
02.09.2015 21:25 12,4 C 12,4 C 87 % 1011,1 hPa 0,0 mm 1,3 km/h (1 Bft) NO 45 10,3 C 0,0 km/h (0 Bft)
02.09.2015 21:30 12,4 C 12,4 C 87 % 1011,1 hPa 0,0 mm 1,6 km/h (1 Bft) O-NO 67 10,3 C 4,1 km/h (1 Bft)
02.09.2015 21:35 12,5 C 12,4 C 89 % 1011,1 hPa 0,0 mm 1,0 km/h (0 Bft) N-NW 337 10,7 C 3,9 km/h (1 Bft)
02.09.2015 21:40 12,5 C 12,4 C 89 % 1011,1 hPa 0,0 mm 1,0 km/h (0 Bft) NO 45 10,7 C 0,0 km/h (0 Bft)
02.09.2015 21:45 12,5 C 12,4 C 89 % 1011,1 hPa 0,0 mm 1,3 km/h (1 Bft) O-SO 112 10,7 C 0,0 km/h (0 Bft)
02.09.2015 21:50 12,5 C 12,4 C 89 % 1011,1 hPa 0,0 mm 0,8 km/h (0 Bft) O-SO 112 10,7 C 0,0 km/h (0 Bft)
02.09.2015 21:55 12,5 C 12,5 C 87 % 1011,0 hPa 0,0 mm 0,3 km/h (0 Bft) O-NO 67 10,4 C 0,0 km/h (0 Bft)
02.09.2015 22:00 12,5 C 12,4 C 89 % 1011,0 hPa 0,0 mm 0,3 km/h (0 Bft) O-SO 112 10,7 C 0,0 km/h (0 Bft)
02.09.2015 22:05 12,4 C 12,4 C 87 % 1011,0 hPa 0,0 mm 0,5 km/h (0 Bft) O-NO 67 10,3 C 0,0 km/h (0 Bft)
02.09.2015 22:10 12,4 C 12,4 C 87 % 1011,0 hPa 0,0 mm 0,3 km/h (0 Bft) SO 135 10,3 C 0,0 km/h (0 Bft)
02.09.2015 22:15 12,4 C 12,4 C 87 % 1010,9 hPa 0,0 mm 0,0 km/h (0 Bft) O-NO 67 10,3 C 0,0 km/h (0 Bft)
02.09.2015 22:20 12,5 C 12,5 C 87 % 1010,9 hPa 0,0 mm 0,0 km/h (0 Bft) O-NO 67 10,4 C 0,0 km/h (0 Bft)
02.09.2015 22:25 12,5 C 12,4 C 90 % 1010,9 hPa 0,0 mm 0,3 km/h (0 Bft) N 360 10,9 C 0,0 km/h (0 Bft)
02.09.2015 22:30 12,5 C 12,4 C 90 % 1010,9 hPa 0,0 mm 1,3 km/h (1 Bft) NO 45 10,9 C 4,4 km/h (1 Bft)
02.09.2015 22:35 12,5 C 12,4 C 90 % 1010,7 hPa 0,0 mm 1,6 km/h (1 Bft) W-SW 247 10,9 C 8,8 km/h (2 Bft)
02.09.2015 22:40 12,5 C 12,4 C 90 % 1010,7 hPa 0,0 mm 2,1 km/h (1 Bft) NO 45 10,9 C 0,0 km/h (0 Bft)
02.09.2015 22:45 12,5 C 12,4 C 90 % 1010,7 hPa 0,0 mm 2,6 km/h (1 Bft) O-NO 67 10,9 C 0,0 km/h (0 Bft)
02.09.2015 22:50 12,4 C 12,3 C 90 % 1010,7 hPa 0,0 mm 2,3 km/h (1 Bft) O-SO 112 10,8 C 0,0 km/h (0 Bft)
02.09.2015 22:55 12,4 C 12,3 C 90 % 1010,4 hPa 0,0 mm 1,3 km/h (1 Bft) S 180 10,8 C 0,0 km/h (0 Bft)
02.09.2015 23:00 12,4 C 12,3 C 90 % 1010,4 hPa 0,0 mm 1,6 km/h (1 Bft) NO 45 10,8 C 3,6 km/h (1 Bft)
02.09.2015 23:05 12,4 C 12,3 C 90 % 1010,4 hPa 0,0 mm 2,6 km/h (1 Bft) N-NO 22 10,8 C 6,5 km/h (2 Bft)
02.09.2015 23:10 12,4 C 12,3 C 90 % 1010,4 hPa 0,0 mm 2,3 km/h (1 Bft) NO 45 10,8 C 3,6 km/h (1 Bft)
02.09.2015 23:15 12,4 C 12,3 C 90 % 1010,4 hPa 0,0 mm 1,6 km/h (1 Bft) O-SO 112 10,8 C 0,0 km/h (0 Bft)
02.09.2015 23:20 12,4 C 12,3 C 90 % 1010,4 hPa 0,0 mm 0,3 km/h (0 Bft) SO 135 10,8 C 3,4 km/h (1 Bft)
02.09.2015 23:25 12,4 C 12,3 C 90 % 1010,4 hPa 0,0 mm 0,3 km/h (0 Bft) O-NO 67 10,8 C 0,0 km/h (0 Bft)
02.09.2015 23:30 12,4 C 12,3 C 91 % 1010,4 hPa 0,0 mm 0,8 km/h (0 Bft) O-NO 67 11,0 C 5,4 km/h (1 Bft)
02.09.2015 23:35 12,4 C 12,3 C 91 % 1010,2 hPa 0,0 mm 1,6 km/h (1 Bft) N 360 11,0 C 0,0 km/h (0 Bft)
02.09.2015 23:40 12,4 C 12,3 C 91 % 1010,2 hPa 0,0 mm 1,8 km/h (1 Bft) NW 315 11,0 C 2,6 km/h (1 Bft)
02.09.2015 23:45 12,4 C 12,3 C 91 % 1010,2 hPa 0,0 mm 1,8 km/h (1 Bft) O-NO 67 11,0 C 3,1 km/h (1 Bft)
02.09.2015 23:50 12,3 C 12,3 C 87 % 1010,2 hPa 0,0 mm 1,6 km/h (1 Bft) O 90 10,2 C 0,0 km/h (0 Bft)
02.09.2015 23:55 12,3 C 12,3 C 88 % 1010,1 hPa 0,0 mm 1,0 km/h (0 Bft) O-NO 67 10,4 C 0,0 km/h (0 Bft)
_ Min-Zeit 23:55 06:50 17:25 23:55 - 22:20 - - 05:40 23:55
Minimum _ 12,3 C 12,2 C 85 % 1010,1 hPa - 0,0 km/h (0 Bft) - - 10,1 C 0,0 km/h (0 Bft)
_ Max-Zeit 01:10 15:45 23:45 02:50 16:40 17:35 - - 01:10 02:40
Maximum _ 13,8 C 14,1 C 91 % 1012,6 hPa 0,7 mm 6,0 km/h
W-NW (2 Bft)
- - 12,0 C 13,5 km/h
W-NW (3 Bft)
Durchschnitt _ 12,8 C 12,8 C 87 % 1011,4 hPa #16,5 mm 1,3 km/h (1 Bft) N-NO - 10,8 C 1,9 km/h (1 Bft)